Time;durP1;ratioP1;P1;durP2;ratioP2;P2;SDS_P1;SDS_P2;PMS_P1;PMS_P2;Temp;Humidity;BMP_temperature;BMP_pressure;BME280_temperature;BME280_humidity;BME280_pressure;Samples;Min_cycle;Max_cycle;Signal;HPM_P1;HPM_P2
2022/07/04 00:00:23;;;;;;;2.63;2.42;;;14.10;99.90;;;;;;5074935;28;20052;-65
2022/07/04 00:02:50;;;;;;;5.30;2.83;;;14.10;99.90;;;;;;5074898;28;20488;-65
2022/07/04 00:05:17;;;;;;;3.95;3.13;;;14.00;99.90;;;;;;5074723;28;20064;-65
2022/07/04 00:07:48;;;;;;;4.63;2.67;;;14.00;99.90;;;;;;5074995;28;20494;-64
2022/07/04 00:10:18;;;;;;;4.25;2.60;;;14.00;99.90;;;;;;5074600;28;20539;-65
2022/07/04 00:12:44;;;;;;;6.40;2.75;;;14.00;99.90;;;;;;5074482;28;20530;-65
2022/07/04 00:15:11;;;;;;;4.40;2.78;;;14.00;99.90;;;;;;5074526;28;20036;-65
2022/07/04 00:17:37;;;;;;;11.43;3.50;;;14.00;99.90;;;;;;5074552;28;20040;-65
2022/07/04 00:20:05;;;;;;;5.05;2.90;;;13.90;99.90;;;;;;5074601;28;20414;-65
2022/07/04 00:22:30;;;;;;;5.43;2.63;;;14.00;99.90;;;;;;5073426;28;20040;-65
2022/07/04 00:24:56;;;;;;;5.07;3.38;;;14.00;99.90;;;;;;5074536;28;20040;-65
2022/07/04 00:27:22;;;;;;;4.32;2.97;;;13.90;99.90;;;;;;5074091;28;20029;-65
2022/07/04 00:29:47;;;;;;;3.90;3.00;;;13.80;99.90;;;;;;5074517;28;20044;-65
2022/07/04 00:32:13;;;;;;;4.93;3.00;;;13.80;99.90;;;;;;5074399;28;20511;-65
2022/07/04 00:34:39;;;;;;;6.18;2.83;;;13.80;99.90;;;;;;5074009;28;20040;-63
2022/07/04 00:37:05;;;;;;;4.13;2.97;;;13.80;99.90;;;;;;5073776;28;20067;-65
2022/07/04 00:39:30;;;;;;;6.05;3.15;;;13.80;99.90;;;;;;5072879;28;20040;-65
2022/07/04 00:41:56;;;;;;;3.97;3.00;;;13.80;99.90;;;;;;5073055;28;20387;-65
2022/07/04 00:44:22;;;;;;;11.27;3.80;;;13.70;99.90;;;;;;5073953;28;20037;-65
2022/07/04 00:46:48;;;;;;;5.25;3.50;;;13.70;99.90;;;;;;5073793;28;20050;-65
2022/07/04 00:49:15;;;;;;;5.55;3.33;;;13.70;99.90;;;;;;5073218;28;20124;-65
2022/07/04 00:51:43;;;;;;;6.72;3.03;;;13.70;99.90;;;;;;5073398;28;20036;-65
2022/07/04 00:54:11;;;;;;;7.45;3.22;;;13.70;99.90;;;;;;5073966;28;20032;-65
2022/07/04 00:56:38;;;;;;;5.32;3.83;;;13.70;99.90;;;;;;5073868;28;20029;-65
2022/07/04 00:59:05;;;;;;;6.50;3.15;;;13.60;99.90;;;;;;5073571;28;20093;-65
2022/07/04 01:01:31;;;;;;;9.40;3.67;;;13.60;99.90;;;;;;5073612;28;20433;-66
2022/07/04 01:03:57;;;;;;;6.72;3.42;;;13.60;99.90;;;;;;5073759;28;20044;-66
2022/07/04 01:06:23;;;;;;;5.85;3.70;;;13.50;99.90;;;;;;5072489;28;20463;-66
2022/07/04 01:08:49;;;;;;;7.50;3.90;;;13.50;99.90;;;;;;5073315;28;20040;-66
2022/07/04 01:11:15;;;;;;;5.90;3.20;;;13.40;99.90;;;;;;5072377;28;20075;-66
2022/07/04 01:13:42;;;;;;;8.32;3.75;;;13.50;99.90;;;;;;5073467;28;20422;-65
2022/07/04 01:16:09;;;;;;;7.70;4.20;;;13.50;99.90;;;;;;5073297;28;20033;-65
2022/07/04 01:18:35;;;;;;;4.65;3.50;;;13.40;99.90;;;;;;5073481;28;20111;-64
2022/07/04 01:21:01;;;;;;;3.92;3.10;;;13.40;99.90;;;;;;5072215;28;20444;-66
2022/07/04 01:23:27;;;;;;;7.47;3.35;;;13.40;99.90;;;;;;5071958;28;20115;-64
2022/07/04 01:25:53;;;;;;;4.78;3.08;;;13.40;99.90;;;;;;5073297;28;20036;-64
2022/07/04 01:28:20;;;;;;;6.20;3.55;;;13.40;99.90;;;;;;5073181;28;20111;-64
2022/07/04 01:30:45;;;;;;;6.63;3.75;;;13.40;99.90;;;;;;5072915;28;20090;-65
2022/07/04 01:33:11;;;;;;;3.17;2.80;;;13.40;99.90;;;;;;5073323;28;20036;-66
2022/07/04 01:35:37;;;;;;;6.13;3.20;;;13.50;99.90;;;;;;5073033;28;20055;-64
2022/07/04 01:38:02;;;;;;;8.63;3.25;;;13.40;99.90;;;;;;5073237;28;20125;-65
2022/07/04 01:40:28;;;;;;;5.55;4.03;;;13.50;99.90;;;;;;5073139;28;20426;-65
2022/07/04 01:42:54;;;;;;;4.63;3.45;;;13.40;99.90;;;;;;5072920;28;20044;-65
2022/07/04 01:45:20;;;;;;;4.10;3.45;;;13.30;99.90;;;;;;5072733;28;20398;-65
2022/07/04 01:47:45;;;;;;;5.53;3.58;;;13.30;99.90;;;;;;5072881;28;20036;-65
2022/07/04 01:50:12;;;;;;;4.53;3.15;;;13.30;99.90;;;;;;5072705;28;20441;-65
2022/07/04 01:52:39;;;;;;;6.97;3.50;;;13.20;99.90;;;;;;5072757;28;20041;-65
2022/07/04 01:55:07;;;;;;;7.15;3.88;;;13.30;99.90;;;;;;5072691;28;20079;-65
2022/07/04 01:57:32;;;;;;;5.15;3.30;;;13.30;99.90;;;;;;5072398;28;20430;-65
2022/07/04 02:02:42;;;;;;;4.28;3.40;;;13.40;99.90;;;;;;5072338;28;20040;-65
2022/07/04 02:05:08;;;;;;;4.55;2.72;;;13.30;99.90;;;;;;5072512;28;20048;-65
2022/07/04 02:07:33;;;;;;;3.50;3.20;;;13.20;99.90;;;;;;5071144;28;20032;-65
2022/07/04 02:09:59;;;;;;;4.28;3.58;;;13.30;99.90;;;;;;5072391;28;20467;-65
2022/07/04 02:15:09;;;;;;;6.68;3.60;;;13.30;99.90;;;;;;5072540;28;20051;-65
2022/07/04 02:17:35;;;;;;;4.38;3.42;;;13.30;99.90;;;;;;5072607;28;20036;-65
2022/07/04 02:20:00;;;;;;;5.72;3.85;;;13.30;99.90;;;;;;5072449;28;20036;-65
2022/07/04 02:22:26;;;;;;;4.93;3.40;;;13.20;99.90;;;;;;5072106;28;20093;-65
2022/07/04 02:24:52;;;;;;;5.18;3.78;;;13.20;99.90;;;;;;5072102;28;20482;-65
2022/07/04 02:27:17;;;;;;;11.20;4.28;;;13.10;99.90;;;;;;5072345;28;20037;-64
2022/07/04 02:29:43;;;;;;;9.52;5.05;;;13.10;99.90;;;;;;5071989;28;20046;-65
2022/07/04 02:32:09;;;;;;;4.93;4.10;;;13.10;99.90;;;;;;5072127;28;20426;-65
2022/07/04 02:34:34;;;;;;;7.78;4.50;;;13.10;99.90;;;;;;5072039;28;20399;-65
2022/07/04 02:37:00;;;;;;;8.05;4.60;;;13.10;99.90;;;;;;5071972;28;20060;-64
2022/07/04 02:39:26;;;;;;;7.90;4.65;;;13.10;99.90;;;;;;5071638;28;20049;-64
2022/07/04 02:41:51;;;;;;;7.38;4.55;;;13.10;99.90;;;;;;5072098;28;20039;-65
2022/07/04 02:44:17;;;;;;;6.95;4.63;;;13.00;99.90;;;;;;5071833;28;20037;-64
2022/07/04 02:46:42;;;;;;;9.15;4.93;;;13.00;99.90;;;;;;5053880;28;20063;-65
2022/07/04 02:49:08;;;;;;;8.13;5.40;;;13.10;99.90;;;;;;5071680;28;20090;-64
2022/07/04 02:51:34;;;;;;;6.35;4.82;;;13.00;99.90;;;;;;5071654;28;20047;-65
2022/07/04 02:54:00;;;;;;;6.95;4.65;;;13.10;99.90;;;;;;5071840;28;20465;-65
2022/07/04 02:56:26;;;;;;;6.47;4.68;;;13.00;99.90;;;;;;5070612;28;20388;-65
2022/07/04 02:58:52;;;;;;;6.35;4.65;;;13.00;99.90;;;;;;5072066;28;20418;-64
2022/07/04 03:01:19;;;;;;;8.02;4.82;;;13.00;99.90;;;;;;5071766;28;20034;-65
2022/07/04 03:03:46;;;;;;;8.40;4.93;;;13.00;99.90;;;;;;5071524;28;20037;-65
2022/07/04 03:06:12;;;;;;;6.00;5.05;;;13.00;99.90;;;;;;5071720;28;20040;-65
2022/07/04 03:08:38;;;;;;;6.57;4.85;;;13.00;99.90;;;;;;5071706;28;20037;-65
2022/07/04 03:11:05;;;;;;;6.25;4.43;;;13.00;99.90;;;;;;5071794;28;20429;-65
2022/07/04 03:13:31;;;;;;;10.07;4.80;;;13.00;99.90;;;;;;5073457;28;20040;-65
2022/07/04 03:15:57;;;;;;;9.57;5.20;;;13.00;99.90;;;;;;5075762;28;20093;-65
2022/07/04 03:18:23;;;;;;;9.52;5.35;;;13.00;99.90;;;;;;5075707;28;20041;-65
2022/07/04 03:20:49;;;;;;;6.93;4.93;;;13.00;99.90;;;;;;5075477;28;20044;-66
2022/07/04 03:23:14;;;;;;;7.78;4.93;;;13.00;99.90;;;;;;5075373;28;20060;-65
2022/07/04 03:25:40;;;;;;;10.50;5.63;;;13.00;99.90;;;;;;5075628;28;20040;-65
2022/07/04 03:28:06;;;;;;;9.52;4.97;;;13.10;99.90;;;;;;5074475;28;20049;-65
2022/07/04 03:30:32;;;;;;;11.70;5.03;;;13.10;99.90;;;;;;5075719;28;20033;-65
2022/07/04 03:32:59;;;;;;;7.53;4.88;;;13.00;99.90;;;;;;5075295;28;20126;-65
2022/07/04 03:35:25;;;;;;;9.20;5.55;;;13.10;99.90;;;;;;5075147;28;20107;-65
2022/07/04 03:37:51;;;;;;;6.05;5.50;;;13.10;99.90;;;;;;5075152;28;20520;-65
2022/07/04 03:40:17;;;;;;;5.80;5.20;;;13.00;99.90;;;;;;5075248;28;20071;-65
2022/07/04 03:42:43;;;;;;;6.72;5.43;;;13.00;99.90;;;;;;5075253;28;20046;-65
2022/07/04 03:45:09;;;;;;;6.60;5.20;;;13.00;99.90;;;;;;5075240;28;20029;-65
2022/07/04 03:47:35;;;;;;;7.07;5.63;;;13.00;99.90;;;;;;5075023;28;20506;-65
2022/07/04 03:50:01;;;;;;;8.18;6.13;;;13.00;99.90;;;;;;5075184;28;20032;-65
2022/07/04 03:52:27;;;;;;;8.07;5.57;;;13.00;99.90;;;;;;5073812;28;20055;-65
2022/07/04 03:54:53;;;;;;;9.45;6.25;;;13.10;99.90;;;;;;5075392;28;20545;-65
2022/07/04 03:57:19;;;;;;;9.23;6.07;;;13.00;99.90;;;;;;5075098;28;20037;-65
2022/07/04 03:59:44;;;;;;;8.82;6.43;;;13.10;99.90;;;;;;5074733;28;20044;-65
2022/07/04 04:02:10;;;;;;;7.38;6.45;;;13.10;99.90;;;;;;5074927;28;20043;-64
2022/07/04 04:07:20;;;;;;;6.22;5.57;;;13.10;99.90;;;;;;5074990;28;20041;-66
2022/07/04 04:09:45;;;;;;;8.18;6.20;;;13.10;99.90;;;;;;5074790;28;20040;-66
2022/07/04 04:12:11;;;;;;;8.75;6.88;;;13.20;99.90;;;;;;5074687;28;20041;-66
2022/07/04 04:14:37;;;;;;;10.05;6.70;;;13.30;99.90;;;;;;5074421;28;20437;-66
2022/07/04 04:17:03;;;;;;;12.30;6.45;;;13.20;99.90;;;;;;5075118;28;20052;-65
2022/07/04 04:19:29;;;;;;;9.00;6.93;;;13.30;99.90;;;;;;5074442;28;20168;-65
2022/07/04 04:21:57;;;;;;;15.55;6.75;;;13.40;99.90;;;;;;5074643;28;20467;-65
2022/07/04 04:24:23;;;;;;;7.03;6.30;;;13.40;99.90;;;;;;5074171;28;20115;-66
2022/07/04 04:26:48;;;;;;;7.57;6.50;;;13.40;99.90;;;;;;5074276;28;20047;-66
2022/07/04 04:29:14;;;;;;;11.27;5.72;;;13.40;99.90;;;;;;5074335;28;20043;-66
2022/07/04 04:31:40;;;;;;;8.73;6.82;;;13.50;99.90;;;;;;5073090;28;20039;-65
2022/07/04 04:34:05;;;;;;;8.80;6.15;;;13.50;99.90;;;;;;5074330;28;20372;-65
2022/07/04 04:36:31;;;;;;;11.82;7.13;;;13.50;99.90;;;;;;5074228;28;20060;-66
2022/07/04 04:38:56;;;;;;;9.80;6.57;;;13.50;99.90;;;;;;5074231;28;20041;-65
2022/07/04 04:41:22;;;;;;;9.38;6.88;;;13.60;99.90;;;;;;5073657;28;20384;-65
2022/07/04 04:43:48;;;;;;;7.30;6.18;;;13.60;99.90;;;;;;5071878;28;20116;-65
2022/07/04 04:46:14;;;;;;;7.65;6.13;;;13.70;99.90;;;;;;5073941;28;20471;-65
2022/07/04 04:48:39;;;;;;;8.18;5.30;;;13.70;99.90;;;;;;5073238;28;20063;-65
2022/07/04 04:51:05;;;;;;;7.60;6.13;;;13.70;99.90;;;;;;5074071;28;20036;-65
2022/07/04 04:53:31;;;;;;;8.23;5.47;;;13.70;99.90;;;;;;5074022;28;20105;-66
2022/07/04 04:55:57;;;;;;;12.18;6.78;;;13.90;99.90;;;;;;5073750;28;20123;-65
2022/07/04 04:58:23;;;;;;;8.85;5.90;;;13.90;99.90;;;;;;5073966;28;20131;-65
2022/07/04 05:00:49;;;;;;;11.30;5.32;;;14.00;99.90;;;;;;5073603;28;20041;-66
2022/07/04 05:03:18;;;;;;;8.48;5.70;;;14.00;99.90;;;;;;5073665;28;20452;-65
2022/07/04 05:05:44;;;;;;;;;;;14.00;99.90;;;;;;5074106;28;20028;-65
2022/07/04 05:08:10;;;;;;;11.60;5.70;;;14.10;99.90;;;;;;5073598;28;20445;-65
2022/07/04 05:10:36;;;;;;;9.57;5.85;;;14.10;99.90;;;;;;5073589;28;20123;-65
2022/07/04 05:13:03;;;;;;;6.82;5.15;;;14.20;99.90;;;;;;5073566;28;20128;-65
2022/07/04 05:15:28;;;;;;;12.13;6.70;;;14.40;99.90;;;;;;5073320;28;20089;-65
2022/07/04 05:17:54;;;;;;;13.40;6.65;;;14.40;99.90;;;;;;5073322;28;20044;-66
2022/07/04 05:20:20;;;;;;;9.57;5.45;;;14.50;99.90;;;;;;5073526;28;20037;-66
2022/07/04 05:22:45;;;;;;;8.38;5.63;;;14.60;99.90;;;;;;5073448;28;20037;-66
2022/07/04 05:25:11;;;;;;;12.85;6.55;;;14.70;99.90;;;;;;5073531;28;20051;-65
2022/07/04 05:27:37;;;;;;;11.15;6.22;;;14.80;99.90;;;;;;5073230;28;20500;-66
2022/07/04 05:30:04;;;;;;;8.75;5.88;;;14.80;99.90;;;;;;5073072;28;20040;-67
2022/07/04 05:32:29;;;;;;;10.35;6.35;;;15.00;99.90;;;;;;5073016;28;20139;-66
2022/07/04 05:34:56;;;;;;;9.43;6.03;;;15.20;99.90;;;;;;5073016;28;20115;-64
2022/07/04 05:37:25;;;;;;;9.43;5.70;;;15.20;99.90;;;;;;5071577;28;20044;-66
2022/07/04 05:39:51;;;;;;;8.68;6.07;;;15.20;99.90;;;;;;5073004;28;20036;-66
2022/07/04 05:42:17;;;;;;;9.27;6.50;;;15.20;99.90;;;;;;5072916;28;20390;-66
2022/07/04 05:44:43;;;;;;;15.38;6.80;;;15.40;99.90;;;;;;5072756;28;20123;-66
2022/07/04 05:47:08;;;;;;;11.43;5.57;;;15.50;99.90;;;;;;5072739;28;20120;-67
2022/07/04 05:49:34;;;;;;;8.70;5.93;;;15.60;99.90;;;;;;5072925;28;20041;-66
2022/07/04 05:52:00;;;;;;;10.32;5.40;;;15.70;99.90;;;;;;5072691;28;20040;-66
2022/07/04 05:54:25;;;;;;;11.52;5.50;;;15.80;99.90;;;;;;5072607;28;20482;-65
2022/07/04 05:56:51;;;;;;;7.93;4.82;;;15.90;99.90;;;;;;5072701;28;20112;-66
2022/07/04 05:59:17;;;;;;;9.18;5.57;;;16.00;99.90;;;;;;5072234;28;20115;-66
2022/07/04 06:01:42;;;;;;;12.48;5.53;;;16.10;99.90;;;;;;5071205;28;20179;-66
2022/07/04 06:04:08;;;;;;;12.02;4.82;;;16.10;99.90;;;;;;5072472;28;20485;-65
2022/07/04 06:06:34;;;;;;;10.38;5.35;;;16.30;99.90;;;;;;5072554;28;20032;-66
2022/07/04 06:09:00;;;;;;;9.95;4.85;;;16.50;99.90;;;;;;5072442;28;20040;-66
2022/07/04 06:11:26;;;;;;;6.30;4.40;;;16.50;99.90;;;;;;5072406;28;20382;-66
2022/07/04 06:13:52;;;;;;;13.05;4.90;;;16.60;99.90;;;;;;5072170;28;20040;-66
2022/07/04 06:16:17;;;;;;;8.75;4.20;;;16.70;99.90;;;;;;5072619;28;20066;-66
2022/07/04 06:18:44;;;;;;;9.57;4.03;;;16.90;99.90;;;;;;5072742;28;20040;-66
2022/07/04 06:21:10;;;;;;;9.43;3.85;;;16.90;99.90;;;;;;5072371;28;20037;-66
2022/07/04 06:23:36;;;;;;;9.13;3.72;;;17.10;99.90;;;;;;5072186;28;20047;-66
2022/07/04 06:26:02;;;;;;;11.38;5.28;;;17.20;99.90;;;;;;5072126;28;20425;-66
2022/07/04 06:28:29;;;;;;;8.75;3.28;;;17.30;99.90;;;;;;5071964;28;20054;-67
2022/07/04 06:30:55;;;;;;;11.45;4.07;;;17.50;99.90;;;;;;5071888;28;20036;-67
2022/07/04 06:33:20;;;;;;;6.03;3.65;;;17.80;99.90;;;;;;5072208;28;20055;-67
2022/07/04 06:35:48;;;;;;;15.43;4.03;;;18.00;99.90;;;;;;5071160;28;20071;-67
2022/07/04 06:38:17;;;;;;;8.23;3.50;;;18.00;99.90;;;;;;5071866;28;20087;-68
2022/07/04 06:40:43;;;;;;;7.28;3.38;;;17.90;99.90;;;;;;5071751;28;20042;-67
2022/07/04 06:43:09;;;;;;;7.97;3.28;;;18.00;99.90;;;;;;5071831;28;20445;-67
2022/07/04 06:45:35;;;;;;;7.13;3.30;;;18.10;99.90;;;;;;5071992;28;20051;-67
2022/07/04 06:48:05;;;;;;;5.93;3.15;;;18.30;99.90;;;;;;5071877;28;20450;-67
2022/07/04 06:50:32;;;;;;;5.72;2.35;;;18.50;99.90;;;;;;5071821;28;20055;-67
2022/07/04 06:52:59;;;;;;;9.95;3.15;;;18.70;99.90;;;;;;5071732;28;20036;-67
2022/07/04 06:55:25;;;;;;;8.70;3.05;;;18.90;99.90;;;;;;5072161;28;20040;-67
2022/07/04 06:57:50;;;;;;;7.75;3.83;;;19.40;99.90;;;;;;5071631;28;20040;-66
2022/07/04 07:00:16;;;;;;;10.43;3.38;;;19.50;99.90;;;;;;5071591;28;20044;-66
2022/07/04 07:02:42;;;;;;;8.63;3.08;;;19.80;99.90;;;;;;5071643;28;20044;-66
2022/07/04 07:05:08;;;;;;;8.55;3.17;;;19.80;99.90;;;;;;5072026;28;20036;-66
2022/07/04 07:07:34;;;;;;;8.02;3.50;;;20.00;99.90;;;;;;5071405;28;20087;-65
2022/07/04 07:10:01;;;;;;;8.48;3.90;;;20.00;99.90;;;;;;5070562;28;20092;-67
2022/07/04 07:12:26;;;;;;;5.45;2.85;;;20.10;99.90;;;;;;5071459;28;20044;-65
2022/07/04 07:14:53;;;;;;;10.15;2.80;;;20.30;99.90;;;;;;5071580;28;20363;-66
2022/07/04 07:17:18;;;;;;;8.23;2.75;;;20.30;99.90;;;;;;5071368;28;20044;-67
2022/07/04 07:19:45;;;;;;;12.70;3.00;;;20.50;99.90;;;;;;5071477;28;20041;-67
2022/07/04 07:22:11;;;;;;;7.72;3.80;;;20.90;99.90;;;;;;5071506;28;20040;-67
2022/07/04 07:24:37;;;;;;;6.03;2.50;;;20.80;99.90;;;;;;5071401;28;20154;-67
2022/07/04 07:27:04;;;;;;;7.28;2.67;;;20.70;99.90;;;;;;5071267;28;20123;-66
2022/07/04 07:29:29;;;;;;;4.43;1.95;;;20.50;99.90;;;;;;5070244;28;20036;-66
2022/07/04 07:31:56;;;;;;;7.05;2.67;;;20.40;99.90;;;;;;5071474;28;20071;-66
2022/07/04 07:34:22;;;;;;;7.82;2.80;;;20.30;99.90;;;;;;5070081;28;20483;-66
2022/07/04 07:36:47;;;;;;;7.85;3.53;;;20.10;99.90;;;;;;5071378;28;20060;-66
2022/07/04 07:39:13;;;;;;;9.88;2.92;;;20.00;99.90;;;;;;5071294;28;20185;-66
2022/07/04 07:41:39;;;;;;;9.57;2.80;;;20.10;99.90;;;;;;5071171;28;20028;-67
2022/07/04 07:44:04;;;;;;;6.20;2.50;;;20.40;99.90;;;;;;5071329;28;20094;-66
2022/07/04 07:46:31;;;;;;;3.83;2.30;;;20.30;99.90;;;;;;5071268;28;20068;-67
2022/07/04 07:48:56;;;;;;;5.82;2.15;;;20.40;99.90;;;;;;5071121;28;20033;-66
2022/07/04 07:51:22;;;;;;;7.57;2.33;;;20.30;99.90;;;;;;5071210;28;20032;-66
2022/07/04 07:53:47;;;;;;;7.18;2.65;;;20.10;99.90;;;;;;5071065;28;20033;-66
2022/07/04 07:56:13;;;;;;;5.18;2.03;;;19.90;99.90;;;;;;5070990;28;20045;-66
2022/07/04 07:58:39;;;;;;;6.15;2.35;;;19.80;99.90;;;;;;5071033;28;20498;-66
2022/07/04 08:01:04;;;;;;;9.27;2.30;;;19.60;99.90;;;;;;5074872;28;20051;-67
2022/07/04 08:06:15;;;;;;;9.32;2.90;;;19.20;99.90;;;;;;5074619;28;20045;-67
2022/07/04 08:08:44;;;;;;;10.27;3.28;;;19.00;99.90;;;;;;5074624;28;20399;-66
2022/07/04 08:11:11;;;;;;;5.35;2.78;;;18.80;99.90;;;;;;5074841;28;20045;-66
2022/07/04 08:13:38;;;;;;;6.10;3.08;;;18.60;99.90;;;;;;5074715;28;20048;-67
2022/07/04 08:16:05;;;;;;;11.20;3.50;;;18.60;99.90;;;;;;5074575;28;20040;-66
2022/07/04 08:18:31;;;;;;;8.57;3.95;;;18.50;99.90;;;;;;5073327;28;20047;-65
2022/07/04 08:20:57;;;;;;;11.23;3.38;;;18.40;99.90;;;;;;5074135;28;20076;-66
2022/07/04 08:23:23;;;;;;;6.95;3.10;;;18.40;99.90;;;;;;5073370;28;20118;-67
2022/07/04 08:25:49;;;;;;;7.78;3.05;;;18.40;99.90;;;;;;5074558;28;20075;-66
2022/07/04 08:28:15;;;;;;;15.50;3.08;;;18.40;99.90;;;;;;5074547;28;20041;-67
2022/07/04 08:30:40;;;;;;;5.88;2.13;;;18.50;99.90;;;;;;5073447;28;20465;-66
2022/07/04 08:33:06;;;;;;;6.63;2.08;;;18.50;99.90;;;;;;5074231;28;20123;-66
2022/07/04 08:35:33;;;;;;;5.55;2.10;;;18.50;99.90;;;;;;5073967;28;20052;-66
2022/07/04 08:37:58;;;;;;;5.97;1.92;;;18.50;99.90;;;;;;5074110;28;20487;-65
2022/07/04 08:40:29;;;;;;;4.97;1.48;;;18.50;99.90;;;;;;5074096;28;20051;-66
2022/07/04 08:42:55;;;;;;;3.97;1.40;;;18.60;99.90;;;;;;5074338;28;20051;-67
2022/07/04 08:45:32;;;;;;;4.57;1.63;;;18.50;99.90;;;;;;5074049;28;20036;-66
2022/07/04 08:48:07;;;;;;;3.55;1.35;;;18.60;99.90;;;;;;5073878;28;20387;-66
2022/07/04 08:50:36;;;;;;;6.78;1.80;;;18.60;99.90;;;;;;5073900;28;20048;-67
2022/07/04 08:53:09;;;;;;;3.00;1.30;;;18.60;99.90;;;;;;5072808;28;20086;-67
2022/07/04 08:58:25;;;;;;;3.70;1.08;;;18.80;99.90;;;;;;5073859;28;20087;-67
2022/07/04 09:01:16;;;;;;;2.20;1.00;;;19.10;99.90;;;;;;5072163;28;20052;-67
2022/07/04 09:03:44;;;;;;;3.17;0.90;;;19.60;99.90;;;;;;5073826;28;20036;-66
2022/07/04 09:06:11;;;;;;;2.90;1.10;;;20.10;99.90;;;;;;5073581;28;20043;-66
2022/07/04 09:08:38;;;;;;;6.85;0.90;;;20.60;99.90;;;;;;5073501;28;20041;-66
2022/07/04 09:11:04;;;;;;;3.20;1.38;;;20.70;99.90;;;;;;5072208;28;20176;-66
2022/07/04 09:13:30;;;;;;;2.83;0.93;;;20.90;99.90;;;;;;5073870;28;20058;-65
2022/07/04 09:15:56;;;;;;;4.65;1.00;;;21.20;99.90;;;;;;5073356;28;20051;-66
2022/07/04 09:18:29;;;;;;;3.17;0.90;;;21.00;99.90;;;;;;5073322;28;20386;-66
2022/07/04 09:20:59;;;;;;;7.70;0.82;;;20.80;99.90;;;;;;5071867;28;20088;-66
2022/07/04 09:23:38;;;;;;;3.13;0.82;;;21.00;99.90;;;;;;5071892;28;20044;-66
2022/07/04 09:26:17;;;;;;;3.40;1.00;;;21.20;99.90;;;;;;5073246;28;20032;-67
2022/07/04 09:28:50;;;;;;;3.65;1.23;;;21.40;99.90;;;;;;5073092;28;20033;-66
2022/07/04 09:31:18;;;;;;;3.03;1.13;;;21.50;99.90;;;;;;5073261;28;20054;-66
2022/07/04 09:33:52;;;;;;;3.28;1.00;;;21.80;99.90;;;;;;5072973;28;20115;-67
2022/07/04 09:36:23;;;;;;;3.33;0.90;;;21.80;99.90;;;;;;5072964;28;20533;-66
2022/07/04 09:39:04;;;;;;;3.92;1.00;;;21.50;99.90;;;;;;5072843;28;20495;-66
2022/07/04 09:41:34;;;;;;;4.22;1.00;;;21.10;99.90;;;;;;5072934;28;20391;-67
2022/07/04 09:44:05;;;;;;;3.70;1.25;;;21.00;99.90;;;;;;5072841;28;20039;-66
2022/07/04 09:46:33;;;;;;;3.13;1.02;;;20.90;99.90;;;;;;5072824;28;20047;-66
2022/07/04 09:48:59;;;;;;;2.38;1.05;;;20.90;99.90;;;;;;5072846;28;20033;-66
2022/07/04 09:51:45;;;;;;;2.33;0.80;;;21.00;99.90;;;;;;5073074;28;20025;-67
2022/07/04 09:54:13;;;;;;;5.57;1.08;;;21.20;99.90;;;;;;5072835;28;20100;-67
2022/07/04 09:56:47;;;;;;;1.50;0.82;;;21.20;99.90;;;;;;5073050;28;20068;-67
2022/07/04 09:59:14;;;;;;;3.20;0.90;;;21.10;99.90;;;;;;5072655;28;20049;-67
2022/07/04 10:01:39;;;;;;;2.22;1.20;;;21.40;99.90;;;;;;5071522;28;20214;-66
2022/07/04 10:04:06;;;;;;;3.40;1.10;;;21.70;99.90;;;;;;5072599;28;20111;-67
2022/07/04 10:06:33;;;;;;;4.20;1.23;;;21.80;99.90;;;;;;5072463;28;20047;-67
2022/07/04 10:09:18;;;;;;;3.13;1.00;;;21.90;99.90;;;;;;5072326;28;20483;-66
2022/07/04 10:11:46;;;;;;;1.48;0.70;;;22.40;99.90;;;;;;5072459;28;20040;-65
2022/07/04 10:14:14;;;;;;;3.65;0.98;;;22.60;99.90;;;;;;5072493;28;20040;-65
2022/07/04 10:16:40;;;;;;;6.00;0.98;;;22.60;99.90;;;;;;5072350;28;20239;-66
2022/07/04 10:19:07;;;;;;;2.38;0.93;;;22.10;99.90;;;;;;5072064;28;20112;-65
2022/07/04 10:21:33;;;;;;;3.85;0.93;;;22.20;99.90;;;;;;5070514;28;20436;-65
2022/07/04 10:24:00;;;;;;;4.03;1.33;;;22.40;99.90;;;;;;5070808;28;20036;-65
2022/07/04 10:26:29;;;;;;;3.03;1.15;;;22.60;99.90;;;;;;5072246;28;20456;-66
2022/07/04 10:28:55;;;;;;;3.40;1.10;;;22.70;99.90;;;;;;5070871;28;20230;-66
2022/07/04 10:31:23;;;;;;;14.27;1.15;;;22.90;99.90;;;;;;5072108;28;20058;-65
2022/07/04 10:33:50;;;;;;;3.78;0.88;;;23.20;99.90;;;;;;5072415;28;20067;-64
2022/07/04 10:36:23;;;;;;;2.22;0.80;;;23.40;99.90;;;;;;5071768;28;20491;-65
2022/07/04 10:38:54;;;;;;;4.75;1.48;;;23.50;99.90;;;;;;5072115;28;20055;-65
2022/07/04 10:41:22;;;;;;;4.15;0.85;;;23.50;99.90;;;;;;5071924;28;20122;-65
2022/07/04 10:43:48;;;;;;;3.85;1.10;;;23.50;99.90;;;;;;5071984;28;20071;-65
2022/07/04 10:46:19;;;;;;;2.90;1.10;;;23.60;99.90;;;;;;5071734;28;20133;-65
2022/07/04 10:48:56;;;;;;;4.53;0.73;;;23.80;99.90;;;;;;5071931;28;20043;-64
2022/07/04 10:51:41;;;;;;;2.10;0.70;;;23.60;99.90;;;;;;5072347;28;20040;-65
2022/07/04 10:54:08;;;;;;;1.63;0.77;;;23.10;99.90;;;;;;5071872;28;20048;-64
2022/07/04 10:56:40;;;;;;;3.90;0.80;;;23.20;99.90;;;;;;5070347;28;20036;-66
2022/07/04 10:59:25;;;;;;;3.33;0.88;;;23.00;99.90;;;;;;5071769;28;20076;-66
2022/07/04 11:01:57;;;;;;;2.63;0.93;;;22.70;99.90;;;;;;5071842;28;20033;-65
2022/07/04 11:04:51;;;;;;;3.25;0.90;;;22.90;99.90;;;;;;5070563;28;20119;-65
2022/07/04 11:07:22;;;;;;;8.18;1.45;;;23.30;99.90;;;;;;5071594;28;20032;-65
2022/07/04 11:10:11;;;;;;;2.40;0.70;;;23.60;99.90;;;;;;5071546;28;20060;-66
2022/07/04 11:12:54;;;;;;;2.53;1.10;;;23.60;99.90;;;;;;5071462;28;20040;-66
2022/07/04 11:15:32;;;;;;;3.65;0.80;;;23.50;99.90;;;;;;5071523;28;20040;-67
2022/07/04 11:18:09;;;;;;;4.30;0.82;;;23.60;99.90;;;;;;5071579;28;20478;-65
2022/07/04 11:20:38;;;;;;;5.13;0.80;;;23.90;99.90;;;;;;5071649;28;20047;-65
2022/07/04 11:23:08;;;;;;;3.75;1.08;;;24.10;99.90;;;;;;5071567;28;20040;-65
2022/07/04 11:25:34;;;;;;;3.95;0.75;;;23.90;99.90;;;;;;5071680;28;20490;-65
2022/07/04 11:28:25;;;;;;;3.53;0.70;;;23.50;99.90;;;;;;5069649;28;20048;-66
2022/07/04 11:30:53;;;;;;;3.10;0.80;;;23.40;99.90;;;;;;5071350;28;20066;-66
2022/07/04 11:33:30;;;;;;;2.58;0.60;;;23.50;99.90;;;;;;5071540;28;20037;-66
2022/07/04 11:36:05;;;;;;;2.35;0.90;;;23.90;99.50;;;;;;5075197;28;20084;-66
2022/07/04 11:38:53;;;;;;;1.70;0.75;;;23.60;99.90;;;;;;5074955;28;20068;-65
2022/07/04 11:47:15;;;;;;;2.35;0.88;;;23.50;99.90;;;;;;5075131;28;20041;-66
2022/07/04 11:49:51;;;;;;;6.75;1.45;;;23.70;99.90;;;;;;5075329;28;20426;-67
2022/07/04 11:52:25;;;;;;;3.58;1.35;;;23.90;99.90;;;;;;5075531;28;20052;-65
2022/07/04 11:54:52;;;;;;;3.33;1.08;;;23.90;99.90;;;;;;5075007;28;20047;-67
2022/07/04 11:57:24;;;;;;;3.13;1.00;;;24.00;99.90;;;;;;5073717;28;20166;-67
2022/07/04 11:59:57;;;;;;;4.95;1.10;;;24.00;99.90;;;;;;5073668;28;20036;-67
2022/07/04 12:02:23;;;;;;;3.15;0.98;;;24.00;98.80;;;;;;5074718;28;20090;-67
2022/07/04 12:04:49;;;;;;;4.18;1.23;;;24.30;99.90;;;;;;5074702;28;20037;-66
2022/07/04 12:07:17;;;;;;;1.20;0.70;;;24.10;99.90;;;;;;5074876;28;20111;-66
2022/07/04 12:09:44;;;;;;;2.72;0.70;;;24.30;99.40;;;;;;5074692;28;20364;-65
2022/07/04 12:12:11;;;;;;;5.13;1.00;;;24.30;98.70;;;;;;5074602;28;20509;-64
2022/07/04 12:14:37;;;;;;;2.33;1.02;;;24.10;99.60;;;;;;5074696;28;20040;-67
2022/07/04 12:17:30;;;;;;;3.83;1.60;;;24.20;99.60;;;;;;5074742;28;20041;-67
2022/07/04 12:19:58;;;;;;;5.22;0.90;;;24.10;99.20;;;;;;5032466;28;20058;-66
2022/07/04 12:22:33;;;;;;;1.42;0.63;;;24.30;99.90;;;;;;5032400;28;20057;-66
2022/07/04 12:24:59;;;;;;;2.28;0.63;;;24.10;99.50;;;;;;5032363;28;20057;-67
2022/07/04 12:27:27;;;;;;;4.43;1.30;;;24.20;99.90;;;;;;5032279;28;20038;-67
2022/07/04 12:29:54;;;;;;;2.85;0.70;;;24.40;99.70;;;;;;5032231;28;20103;-65
2022/07/04 12:32:21;;;;;;;6.90;0.90;;;24.30;99.80;;;;;;5032167;28;20128;-67
2022/07/04 12:34:47;;;;;;;4.28;0.93;;;24.60;99.90;;;;;;5032148;28;20058;-65
2022/07/04 12:37:15;;;;;;;2.38;1.00;;;24.60;99.70;;;;;;5031924;28;20478;-67
2022/07/04 12:39:43;;;;;;;5.07;1.20;;;24.60;99.60;;;;;;5032009;28;20044;-66
2022/07/04 12:42:09;;;;;;;4.95;1.42;;;24.30;99.90;;;;;;5032135;28;20112;-66
2022/07/04 12:44:37;;;;;;;3.08;1.02;;;24.40;99.90;;;;;;5031664;28;20050;-66
2022/07/04 12:47:04;;;;;;;4.95;0.98;;;24.40;99.90;;;;;;5031939;28;20046;-66
2022/07/04 12:49:30;;;;;;;3.10;1.27;;;24.50;99.90;;;;;;5031921;28;20046;-66
2022/07/04 12:52:11;;;;;;;4.93;1.33;;;24.50;99.90;;;;;;5031809;28;20041;-67
2022/07/04 12:54:38;;;;;;;2.42;0.90;;;24.30;99.60;;;;;;5031723;28;20555;-66
2022/07/04 12:57:10;;;;;;;2.13;0.80;;;24.20;99.90;;;;;;5052061;28;20139;-66
2022/07/04 12:59:36;;;;;;;2.30;0.95;;;24.20;99.90;;;;;;5073868;28;20037;-65
2022/07/04 13:02:02;;;;;;;4.07;0.90;;;24.30;99.90;;;;;;5073809;28;20041;-66
2022/07/04 13:04:27;;;;;;;3.30;0.80;;;24.30;99.80;;;;;;5073646;28;20390;-65
2022/07/04 13:06:53;;;;;;;3.00;0.80;;;24.30;99.90;;;;;;5073616;28;20028;-65